createdAt,value
2019-04-23T00:02:28.513Z,100020.80
2019-04-23T00:04:53.094Z,100018.36
2019-04-23T00:10:06.568Z,100023.20
2019-04-23T00:15:07.427Z,100015.33
2019-04-23T00:17:37.134Z,100015.29
2019-04-23T00:20:12.585Z,100015.54
2019-04-23T00:22:53.359Z,100014.98
2019-04-23T00:25:38.041Z,100011.16
2019-04-23T00:28:06.553Z,100006.83
2019-04-23T00:30:45.359Z,100005.81
2019-04-23T00:33:05.829Z,100004.98
2019-04-23T00:35:38.654Z,100001.86
2019-04-23T00:38:11.904Z,100004.47
2019-04-23T00:40:39.086Z,99999.06
2019-04-23T00:43:18.187Z,99994.29
2019-04-23T00:45:44.506Z,99992.23
2019-04-23T00:48:25.993Z,99985.44
2019-04-23T00:53:19.209Z,99981.47
2019-04-23T00:55:47.626Z,99988.39
2019-04-23T00:58:21.250Z,99986.80
2019-04-23T01:05:55.692Z,99974.32
2019-04-23T01:08:38.811Z,99969.44
2019-04-23T01:13:39.382Z,99974.77
2019-04-23T01:16:05.666Z,99979.30
2019-04-23T01:18:50.629Z,99968.25
2019-04-23T01:20:54.816Z,99972.81
2019-04-23T01:23:45.622Z,99973.51
2019-04-23T01:26:33.055Z,99963.59
2019-04-23T01:29:07.089Z,99960.16
2019-04-23T01:31:41.070Z,99958.21
2019-04-23T01:34:13.058Z,99959.31
2019-04-23T01:36:37.713Z,99966.03
2019-04-23T01:39:11.748Z,99966.49
2019-04-23T01:41:49.232Z,99953.92
2019-04-23T01:44:15.203Z,99952.81
2019-04-23T01:46:49.441Z,99956.23
2019-04-23T01:49:26.465Z,99943.13
2019-04-23T01:54:17.806Z,99944.58
2019-04-23T01:56:49.456Z,99939.66
2019-04-23T01:59:26.251Z,99935.86
2019-04-23T02:07:06.325Z,99933.27
2019-04-23T02:09:51.588Z,99923.12
2019-04-23T02:11:59.197Z,99918.09
2019-04-23T02:14:29.673Z,99921.02
2019-04-23T02:17:07.616Z,99925.64
2019-04-23T02:19:42.862Z,99914.54
2019-04-23T02:22:03.980Z,99911.29
2019-04-23T02:24:43.012Z,99913.56
2019-04-23T02:27:11.774Z,99911.61
2019-04-23T02:29:59.198Z,99906.84
2019-04-23T02:32:22.137Z,99905.54
2019-04-23T02:34:57.860Z,99903.42
2019-04-23T02:40:01.934Z,99903.45
2019-04-23T02:42:47.119Z,99899.69
2019-04-23T02:44:55.855Z,99890.37
2019-04-23T02:50:08.852Z,99893.47
2019-04-23T02:52:30.630Z,99893.47
2019-04-23T02:55:10.833Z,99888.69
2019-04-23T02:57:36.891Z,99891.30
2019-04-23T03:02:40.788Z,99887.84
2019-04-23T03:05:08.265Z,99882.44
2019-04-23T03:10:07.820Z,99887.19
2019-04-23T03:15:31.956Z,99877.14
2019-04-23T03:21:00.396Z,99882.71
2019-04-23T03:26:04.263Z,99871.29
2019-04-23T03:28:27.361Z,99868.20
2019-04-23T03:38:39.463Z,99863.55
2019-04-23T03:41:10.762Z,99865.55
2019-04-23T03:43:38.284Z,99862.29
2019-04-23T03:46:17.802Z,99856.59
2019-04-23T03:51:03.144Z,99864.80
2019-04-23T03:53:45.413Z,99864.80
2019-04-23T04:01:16.262Z,99859.11
2019-04-23T04:06:37.656Z,99857.97
2019-04-23T04:08:46.607Z,99854.23
2019-04-23T04:11:14.329Z,99852.27
2019-04-23T04:13:53.593Z,99845.09
2019-04-23T04:16:21.840Z,99851.45
2019-04-23T04:21:27.624Z,99848.83
2019-04-23T04:24:03.254Z,99849.66
2019-04-23T04:31:34.650Z,99849.17
2019-04-23T04:36:29.805Z,99842.79
2019-04-23T04:41:34.352Z,99844.76
2019-04-23T04:44:17.265Z,99847.34
2019-04-23T04:49:08.065Z,99848.17
2019-04-23T04:54:09.398Z,99842.41
2019-04-23T04:56:35.977Z,99839.77
2019-04-23T05:01:37.365Z,99842.86
2019-04-23T05:04:18.264Z,99838.79
2019-04-23T05:06:56.612Z,99841.41
2019-04-23T05:09:25.227Z,99833.56
2019-04-23T05:14:13.323Z,99827.83
2019-04-23T05:16:44.497Z,99832.92
2019-04-23T05:24:21.827Z,99832.42
2019-04-23T05:26:43.057Z,99826.56
2019-04-23T05:31:51.520Z,99828.04
2019-04-23T05:34:23.955Z,99827.04
2019-04-23T05:37:01.586Z,99827.56
2019-04-23T05:39:30.931Z,99825.89
2019-04-23T05:41:53.784Z,99820.00
2019-04-23T05:44:31.213Z,99819.35
2019-04-23T05:47:07.261Z,99817.37
2019-04-23T05:49:31.889Z,99816.38
2019-04-23T05:52:01.816Z,99808.86
2019-04-23T05:54:45.825Z,99808.82
2019-04-23T05:57:01.774Z,99809.31
2019-04-23T05:59:46.895Z,99806.81
2019-04-23T06:02:04.811Z,99810.75
2019-04-23T06:04:36.512Z,99811.39
2019-04-23T06:07:25.023Z,99811.98
2019-04-23T06:09:39.281Z,99811.84
2019-04-23T06:12:06.990Z,99805.88
2019-04-23T06:14:47.387Z,99806.19
2019-04-23T06:17:15.182Z,99802.56
2019-04-23T06:19:44.292Z,99809.03
2019-04-23T06:24:45.043Z,99803.55
2019-04-23T06:27:22.088Z,99803.06
2019-04-23T06:29:49.571Z,99800.31
2019-04-23T06:32:22.938Z,99803.59
2019-04-23T06:34:53.031Z,99801.53
2019-04-23T06:37:27.080Z,99798.36
2019-04-23T06:39:55.145Z,99797.48
2019-04-23T06:42:29.574Z,99802.13
2019-04-23T06:44:58.257Z,99795.85
2019-04-23T06:47:27.811Z,99798.04
2019-04-23T06:52:43.756Z,99792.20
2019-04-23T06:55:01.603Z,99785.16
2019-04-23T06:57:25.581Z,99782.83
2019-04-23T07:02:37.715Z,99778.23
2019-04-23T07:10:07.251Z,99778.09
2019-04-23T07:15:27.660Z,99772.87
2019-04-23T07:17:39.617Z,99767.99
2019-04-23T07:20:15.128Z,99761.80
2019-04-23T07:22:54.657Z,99762.08
2019-04-23T07:25:17.621Z,99758.12
2019-04-23T07:28:06.906Z,99753.55
2019-04-23T07:32:52.990Z,99758.23
2019-04-23T07:35:16.084Z,99746.22
2019-04-23T07:38:16.314Z,99748.50
2019-04-23T07:43:18.446Z,99741.34
2019-04-23T07:45:57.580Z,99736.19
2019-04-23T07:50:55.140Z,99734.47
2019-04-23T07:53:24.626Z,99733.14
2019-04-23T07:56:02.509Z,99733.25
2019-04-23T07:58:23.395Z,99729.15
2019-04-23T08:06:01.086Z,99724.59
2019-04-23T08:11:33.296Z,99723.64
2019-04-23T08:18:57.738Z,99729.58
2019-04-23T08:21:19.277Z,99724.30
2019-04-23T08:24:00.301Z,99720.71
2019-04-23T08:29:12.816Z,99720.70
2019-04-23T08:31:43.826Z,99720.70
2019-04-23T08:39:18.172Z,99719.89
2019-04-23T08:42:02.002Z,99721.35
2019-04-23T08:44:56.418Z,99719.41
2019-04-23T08:49:44.208Z,99716.58
2019-04-23T08:54:48.389Z,99710.45
2019-04-23T08:57:08.741Z,99715.84
2019-04-23T08:59:44.025Z,99714.88
2019-04-23T09:04:49.968Z,99718.38
2019-04-23T09:07:16.706Z,99719.80
2019-04-23T09:09:55.189Z,99712.69
2019-04-23T09:14:51.127Z,99721.72
2019-04-23T09:17:24.764Z,99707.20
2019-04-23T09:20:09.845Z,99706.34
2019-04-23T09:24:55.763Z,99704.39
2019-04-23T09:27:31.774Z,99699.83
2019-04-23T09:30:02.683Z,99698.80
2019-04-23T09:32:25.167Z,99698.36
2019-04-23T09:38:07.089Z,99693.14
2019-04-23T09:43:31.229Z,99683.48
2019-04-23T09:48:41.200Z,99675.31
2019-04-23T09:51:10.273Z,99680.28
2019-04-23T09:53:37.907Z,99672.59
2019-04-23T09:56:10.243Z,99667.20
2019-04-23T09:58:34.598Z,99675.28
2019-04-23T10:03:46.328Z,99674.27
2019-04-23T10:06:16.136Z,99672.82
2019-04-23T10:08:46.446Z,99671.20
2019-04-23T10:11:11.724Z,99665.98
2019-04-23T10:13:42.818Z,99653.20
2019-04-23T10:16:15.746Z,99654.61
2019-04-23T10:18:44.911Z,99645.48
2019-04-23T10:21:15.511Z,99641.99
2019-04-23T10:23:45.329Z,99637.11
2019-04-23T10:26:16.308Z,99639.83
2019-04-23T10:28:51.913Z,99637.17
2019-04-23T10:31:22.882Z,99637.78
2019-04-23T10:33:52.509Z,99637.91
2019-04-23T10:36:25.894Z,99635.80
2019-04-23T10:39:00.509Z,99630.55
2019-04-23T10:41:25.733Z,99625.61
2019-04-23T10:43:58.591Z,99622.06
2019-04-23T10:47:06.754Z,99616.59
2019-04-23T10:50:31.763Z,99623.38
2019-04-23T10:52:20.186Z,99619.11
2019-04-23T10:54:57.626Z,99611.25
2019-04-23T10:57:16.713Z,99613.76
2019-04-23T11:02:36.970Z,99600.17
2019-04-23T11:07:30.864Z,99597.71
2019-04-23T11:12:42.369Z,99590.34
2019-04-23T11:20:14.902Z,99576.23
2019-04-23T11:25:20.408Z,99575.59
2019-04-23T11:27:46.986Z,99574.11
2019-04-23T11:30:29.351Z,99582.24
2019-04-23T11:32:54.291Z,99589.77
2019-04-23T11:35:24.064Z,99579.28
2019-04-23T11:40:23.252Z,99579.83
2019-04-23T11:43:09.310Z,99578.48
2019-04-23T11:45:32.484Z,99582.68
2019-04-23T11:50:39.680Z,99576.97
2019-04-23T11:50:59.847Z,99582.55
2019-04-23T11:52:56.443Z,99577.13
2019-04-23T11:55:43.097Z,99579.63
2019-04-23T11:58:08.397Z,99582.55
2019-04-23T12:00:44.720Z,99579.02
2019-04-23T12:03:17.310Z,99581.68
2019-04-23T12:06:12.134Z,99586.45
2019-04-23T12:11:39.567Z,99583.71
2019-04-23T12:14:15.999Z,99572.70
2019-04-23T12:16:47.146Z,99579.86
2019-04-23T12:19:32.881Z,99573.37
2019-04-23T12:21:45.394Z,99583.16
2019-04-23T12:24:39.452Z,99579.11
2019-04-23T12:26:53.887Z,99576.18
2019-04-23T12:29:23.745Z,99569.22
2019-04-23T12:32:15.053Z,99565.66
2019-04-23T12:34:49.471Z,99565.13
2019-04-23T12:37:15.076Z,99569.75
2019-04-23T12:39:43.999Z,99567.85
2019-04-23T12:42:37.751Z,99566.42
2019-04-23T12:44:47.798Z,99563.77
2019-04-23T12:47:25.413Z,99559.27
2019-04-23T12:50:18.901Z,99557.56
2019-04-23T12:52:27.781Z,99561.51
2019-04-23T12:55:05.316Z,99552.73
2019-04-23T12:59:54.831Z,99555.53
2019-04-23T13:02:33.434Z,99556.97
2019-04-23T13:04:51.750Z,99548.64
2019-04-23T13:07:36.994Z,99546.55
2019-04-23T13:09:58.319Z,99542.24
2019-04-23T13:20:15.679Z,99534.04
2019-04-23T13:22:39.827Z,99529.55
2019-04-23T13:25:09.584Z,99522.64
2019-04-23T13:27:57.193Z,99521.38
2019-04-23T13:30:23.331Z,99520.42
2019-04-23T13:32:55.467Z,99517.58
2019-04-23T13:37:58.947Z,99505.47
2019-04-23T13:40:24.749Z,99499.03
2019-04-23T13:43:07.404Z,99495.80
2019-04-23T13:45:49.778Z,99494.08
2019-04-23T13:48:03.437Z,99498.91
2019-04-23T13:50:37.482Z,99500.97
2019-04-23T13:55:21.746Z,99494.16
2019-04-23T13:58:09.109Z,99492.50
2019-04-23T14:00:44.715Z,99489.21
2019-04-23T14:03:05.392Z,99492.57
2019-04-23T14:06:01.733Z,99485.12
2019-04-23T14:08:41.321Z,99479.58
2019-04-23T14:11:06.919Z,99486.99
2019-04-23T14:16:04.487Z,99485.30
2019-04-23T14:21:17.175Z,99478.06
2019-04-23T14:23:59.198Z,99480.87
2019-04-23T14:28:43.577Z,99471.60
2019-04-23T14:31:10.574Z,99470.70
2019-04-23T14:33:52.677Z,99472.25
2019-04-23T14:36:13.965Z,99463.52
2019-04-23T14:41:23.468Z,99468.75
2019-04-23T14:46:36.557Z,99465.11
2019-04-23T14:56:29.951Z,99460.19
2019-04-23T14:59:01.651Z,99460.01
2019-04-23T15:01:49.712Z,99467.92
2019-04-23T15:03:55.951Z,99469.81
2019-04-23T15:06:50.941Z,99468.95
2019-04-23T15:09:24.232Z,99467.31
2019-04-23T15:11:36.819Z,99462.66
2019-04-23T15:14:01.469Z,99459.42
2019-04-23T15:16:37.895Z,99460.14
2019-04-23T15:19:33.993Z,99458.45
2019-04-23T15:24:30.361Z,99448.69
2019-04-23T15:29:09.692Z,99449.98
2019-04-23T15:34:23.492Z,99449.06
2019-04-23T15:37:14.507Z,99448.86
2019-04-23T15:39:31.527Z,99448.09
2019-04-23T15:42:22.718Z,99438.97
2019-04-23T15:44:49.083Z,99442.11
2019-04-23T15:47:12.055Z,99447.34
2019-04-23T15:49:36.366Z,99445.50
2019-04-23T15:52:14.300Z,99437.48
2019-04-23T15:54:54.952Z,99443.83
2019-04-23T15:57:07.153Z,99445.13
2019-04-23T15:59:40.655Z,99442.95
2019-04-23T16:01:44.507Z,99447.24
2019-04-23T16:04:16.589Z,99433.25
2019-04-23T16:06:54.095Z,99443.32
2019-04-23T16:09:54.114Z,99444.77
2019-04-23T16:12:22.814Z,99442.42
2019-04-23T16:15:06.486Z,99439.96
2019-04-23T16:17:29.035Z,99435.16
2019-04-23T16:22:39.556Z,99440.92
2019-04-23T16:25:13.337Z,99433.11
2019-04-23T16:27:49.069Z,99435.14
2019-04-23T16:38:14.129Z,99430.83
2019-04-23T16:40:33.226Z,99432.30
2019-04-23T16:43:03.786Z,99424.66
2019-04-23T16:45:40.205Z,99429.80
2019-04-23T16:48:20.252Z,99432.44
2019-04-23T16:50:57.167Z,99429.70
2019-04-23T16:55:47.526Z,99431.51
2019-04-23T16:58:21.491Z,99425.50
2019-04-23T17:00:51.514Z,99424.33
2019-04-23T17:03:23.425Z,99427.14
2019-04-23T17:05:50.816Z,99428.61
2019-04-23T17:08:35.556Z,99417.69
2019-04-23T17:10:55.465Z,99421.75
2019-04-23T17:13:20.160Z,99420.72
2019-04-23T17:18:25.921Z,99423.23
2019-04-23T17:20:53.082Z,99422.16
2019-04-23T17:23:34.443Z,99418.51
2019-04-23T17:25:57.263Z,99421.16
2019-04-23T17:31:18.818Z,99419.05
2019-04-23T17:33:35.654Z,99418.80
2019-04-23T17:36:18.506Z,99417.06
2019-04-23T17:41:19.353Z,99419.73
2019-04-23T17:43:59.937Z,99419.05
2019-04-23T17:46:21.843Z,99424.54
2019-04-23T17:48:59.537Z,99419.25
2019-04-23T17:51:26.618Z,99418.05
2019-04-23T17:54:06.597Z,99422.83
2019-04-23T17:56:36.721Z,99421.83
2019-04-23T17:59:04.314Z,99421.99
2019-04-23T18:02:12.815Z,99418.16
2019-04-23T18:04:10.377Z,99422.28
2019-04-23T18:09:15.176Z,99427.02
2019-04-23T18:11:35.769Z,99424.70
2019-04-23T18:14:08.267Z,99428.10
2019-04-23T18:16:46.210Z,99422.80
2019-04-23T18:19:12.656Z,99431.02
2019-04-23T18:22:07.416Z,99429.30
2019-04-23T18:24:41.237Z,99433.84
2019-04-23T18:27:21.367Z,99435.13
2019-04-23T18:29:54.895Z,99433.31
2019-04-23T18:32:43.456Z,99436.06
2019-04-23T18:37:30.003Z,99440.23
2019-04-23T18:39:54.669Z,99445.66
2019-04-23T18:42:40.817Z,99447.35
2019-04-23T18:45:07.162Z,99447.29
2019-04-23T18:47:40.469Z,99452.48
2019-04-23T18:50:02.349Z,99448.86
2019-04-23T18:52:53.188Z,99455.28
2019-04-23T18:55:14.550Z,99456.22
2019-04-23T18:57:40.308Z,99464.12
2019-04-23T19:00:36.980Z,99469.91
2019-04-23T19:02:51.791Z,99464.79
2019-04-23T19:08:00.978Z,99479.53
2019-04-23T19:10:56.112Z,99479.20
2019-04-23T19:13:24.726Z,99481.94
2019-04-23T19:15:50.529Z,99483.34
2019-04-23T19:18:26.150Z,99479.84
2019-04-23T19:21:00.926Z,99485.17
2019-04-23T19:23:32.668Z,99491.69
2019-04-23T19:25:53.604Z,99485.94
2019-04-23T19:28:40.890Z,99494.04
2019-04-23T19:31:18.712Z,99493.58
2019-04-23T19:38:35.179Z,99490.45
2019-04-23T19:41:12.849Z,99495.45
2019-04-23T19:43:41.813Z,99497.32
2019-04-23T19:46:34.855Z,99494.10
2019-04-23T19:48:54.600Z,99497.31
2019-04-23T19:51:16.924Z,99492.56
2019-04-23T19:54:12.833Z,99493.88
2019-04-23T19:56:36.544Z,99490.95
2019-04-23T20:06:48.466Z,99507.73
2019-04-23T20:11:32.735Z,99506.95
2019-04-23T20:13:55.489Z,99507.72
2019-04-23T20:21:32.586Z,99509.55
2019-04-23T20:32:06.113Z,99508.97
2019-04-23T20:36:52.878Z,99504.14
2019-04-23T20:42:08.693Z,99513.09
2019-04-23T20:44:46.956Z,99512.30
2019-04-23T20:47:11.496Z,99506.80
2019-04-23T20:49:43.202Z,99512.45
2019-04-23T20:52:07.188Z,99508.52
2019-04-23T20:54:48.956Z,99514.94
2019-04-23T20:57:43.113Z,99514.94
2019-04-23T21:00:06.765Z,99511.78
2019-04-23T21:05:17.895Z,99511.22
2019-04-23T21:10:30.702Z,99514.38
2019-04-23T21:15:30.922Z,99515.47
2019-04-23T21:20:35.436Z,99514.50
2019-04-23T21:23:06.186Z,99510.86
2019-04-23T21:25:30.475Z,99515.22
2019-04-23T21:28:11.549Z,99509.65
2019-04-23T21:30:58.521Z,99515.20
2019-04-23T21:33:11.669Z,99507.38
2019-04-23T21:41:30.356Z,99509.69
2019-04-23T21:46:30.315Z,99509.12
2019-04-23T21:53:55.406Z,99510.41
2019-04-23T21:59:01.484Z,99517.01
2019-04-23T22:04:15.663Z,99511.19
2019-04-23T22:06:43.486Z,99515.61
2019-04-23T22:14:17.064Z,99513.86
2019-04-23T22:19:14.962Z,99515.77
2019-04-23T22:21:50.190Z,99510.38
2019-04-23T22:24:10.334Z,99516.17
2019-04-23T22:26:48.864Z,99518.46
2019-04-23T22:37:07.934Z,99520.37
2019-04-23T22:39:25.454Z,99516.49
2019-04-23T22:44:42.526Z,99510.25
2019-04-23T22:47:00.667Z,99510.14
2019-04-23T22:49:40.649Z,99511.66
2019-04-23T22:54:41.905Z,99508.70
2019-04-23T22:57:20.978Z,99501.95
2019-04-23T22:59:54.400Z,99496.55
2019-04-23T23:02:21.541Z,99500.95
2019-04-23T23:05:04.182Z,99498.80
2019-04-23T23:07:24.207Z,99499.86
2019-04-23T23:12:20.897Z,99500.60
2019-04-23T23:14:54.830Z,99502.88
2019-04-23T23:17:24.736Z,99505.35
2019-04-23T23:20:08.780Z,99508.72
2019-04-23T23:22:27.306Z,99499.02
2019-04-23T23:25:04.682Z,99507.13
2019-04-23T23:27:32.382Z,99509.25
2019-04-23T23:32:30.585Z,99507.00
2019-04-23T23:35:24.555Z,99511.50
2019-04-23T23:37:34.599Z,99511.88
2019-04-23T23:40:17.045Z,99517.84
2019-04-23T23:42:45.411Z,99514.37
2019-04-23T23:45:21.655Z,99519.14
2019-04-23T23:47:38.126Z,99527.30
2019-04-23T23:50:17.828Z,99524.64
2019-04-23T23:52:48.789Z,99525.73
2019-04-23T23:55:16.569Z,99525.48
2019-04-23T23:57:50.271Z,99525.35
